createdAt,value
2022-10-17T00:01:13.396Z,13.20
2022-10-17T00:03:42.391Z,13.10
2022-10-17T00:06:13.604Z,13.10
2022-10-17T00:08:43.773Z,13.10
2022-10-17T00:11:18.277Z,13.10
2022-10-17T00:13:47.008Z,13.00
2022-10-17T00:16:16.393Z,13.00
2022-10-17T00:18:44.544Z,13.00
2022-10-17T00:21:17.940Z,13.00
2022-10-17T00:23:46.275Z,12.90
2022-10-17T00:26:17.462Z,12.90
2022-10-17T00:28:49.135Z,12.90
2022-10-17T00:31:20.224Z,12.90
2022-10-17T00:33:49.144Z,12.90
2022-10-17T00:36:21.160Z,12.90
2022-10-17T00:38:52.532Z,12.80
2022-10-17T00:41:26.559Z,12.80
2022-10-17T00:43:59.338Z,12.80
2022-10-17T00:46:30.557Z,12.80
2022-10-17T00:49:03.758Z,12.80
2022-10-17T00:51:41.969Z,12.80
2022-10-17T00:54:16.929Z,12.70
2022-10-17T00:56:49.629Z,12.70
2022-10-17T00:59:21.830Z,12.70
2022-10-17T01:01:59.075Z,12.60
2022-10-17T01:04:28.341Z,12.60
2022-10-17T01:06:56.516Z,12.60
2022-10-17T01:09:25.490Z,12.60
2022-10-17T01:12:05.032Z,12.60
2022-10-17T01:14:48.738Z,12.60
2022-10-17T01:17:28.968Z,12.60
2022-10-17T01:20:53.712Z,12.60
2022-10-17T01:24:04.354Z,12.60
2022-10-17T01:26:56.526Z,12.50
2022-10-17T01:29:54.098Z,12.50
2022-10-17T01:32:31.685Z,12.50
2022-10-17T01:35:12.796Z,12.50
2022-10-17T01:37:48.043Z,12.40
2022-10-17T01:40:26.766Z,12.40
2022-10-17T01:43:05.603Z,12.40
2022-10-17T01:45:41.736Z,12.40
2022-10-17T01:48:18.182Z,12.30
2022-10-17T01:50:53.449Z,12.30
2022-10-17T01:53:29.235Z,12.30
2022-10-17T01:56:04.051Z,12.20
2022-10-17T01:58:37.442Z,12.20
2022-10-17T02:01:10.773Z,12.20
2022-10-17T02:03:43.886Z,12.10
2022-10-17T02:06:12.329Z,12.10
2022-10-17T02:08:44.520Z,12.10
2022-10-17T02:11:17.553Z,12.10
2022-10-17T02:14:04.507Z,12.00
2022-10-17T02:16:43.149Z,12.00
2022-10-17T02:19:41.536Z,12.00
2022-10-17T02:22:26.348Z,11.90
2022-10-17T02:25:03.697Z,11.90
2022-10-17T02:27:44.994Z,11.90
2022-10-17T02:30:20.803Z,11.90
2022-10-17T02:32:56.516Z,11.80
2022-10-17T02:35:30.735Z,11.80
2022-10-17T02:38:01.706Z,11.80
2022-10-17T02:40:32.236Z,11.80
2022-10-17T02:43:01.984Z,11.80
2022-10-17T02:45:36.038Z,11.70
2022-10-17T02:48:11.814Z,11.70
2022-10-17T02:50:53.253Z,11.70
2022-10-17T02:53:36.341Z,11.70
2022-10-17T02:56:12.808Z,11.60
2022-10-17T02:58:43.961Z,11.60
2022-10-17T03:01:14.976Z,11.60
2022-10-17T03:03:43.167Z,11.60
2022-10-17T03:06:12.628Z,11.60
2022-10-17T03:08:40.734Z,11.60
2022-10-17T03:11:08.839Z,11.50
2022-10-17T03:13:39.691Z,11.50
2022-10-17T03:16:08.826Z,11.50
2022-10-17T03:18:37.499Z,11.50
2022-10-17T03:21:06.391Z,11.40
2022-10-17T03:23:36.320Z,11.50
2022-10-17T03:26:07.095Z,11.40
2022-10-17T03:28:36.679Z,11.40
2022-10-17T03:31:09.351Z,11.40
2022-10-17T03:33:39.067Z,11.30
2022-10-17T03:36:09.110Z,11.30
2022-10-17T03:38:40.605Z,11.30
2022-10-17T03:41:09.541Z,11.30
2022-10-17T03:43:39.333Z,11.30
2022-10-17T03:46:08.247Z,11.20
2022-10-17T03:48:37.628Z,11.20
2022-10-17T03:51:09.480Z,11.20
2022-10-17T03:53:45.690Z,11.20
2022-10-17T03:56:17.824Z,11.10
2022-10-17T03:58:50.777Z,11.10
2022-10-17T04:01:20.602Z,11.10
2022-10-17T04:03:52.358Z,11.00
2022-10-17T04:06:21.557Z,11.00
2022-10-17T04:08:51.733Z,11.00
2022-10-17T04:11:35.610Z,11.00
2022-10-17T04:14:05.098Z,10.90
2022-10-17T04:16:33.388Z,10.90
2022-10-17T04:19:05.085Z,10.90
2022-10-17T04:21:40.483Z,10.90
2022-10-17T04:24:13.203Z,10.90
2022-10-17T04:27:10.263Z,10.90
2022-10-17T04:29:42.303Z,10.90
2022-10-17T04:32:20.993Z,10.90
2022-10-17T04:34:52.517Z,10.80
2022-10-17T04:37:23.101Z,10.80
2022-10-17T04:39:54.631Z,10.80
2022-10-17T04:42:23.015Z,10.80
2022-10-17T04:44:53.632Z,10.80
2022-10-17T04:47:24.875Z,10.80
2022-10-17T04:49:53.201Z,10.80
2022-10-17T04:52:23.370Z,10.80
2022-10-17T04:54:53.741Z,10.80
2022-10-17T04:57:23.716Z,10.70
2022-10-17T04:59:58.956Z,10.80
2022-10-17T05:02:45.763Z,10.70
2022-10-17T05:05:14.063Z,10.70
2022-10-17T05:07:42.976Z,10.70
2022-10-17T05:10:14.581Z,10.70
2022-10-17T05:12:48.657Z,10.70
2022-10-17T05:15:18.886Z,10.70
2022-10-17T05:17:47.136Z,10.70
2022-10-17T05:20:15.370Z,10.70
2022-10-17T05:22:43.529Z,10.60
2022-10-17T05:25:12.909Z,10.60
2022-10-17T05:27:41.341Z,10.60
2022-10-17T05:30:12.639Z,10.60
2022-10-17T05:32:41.855Z,10.60
2022-10-17T05:35:10.821Z,10.60
2022-10-17T05:37:40.138Z,10.60
2022-10-17T05:40:10.198Z,10.60
2022-10-17T05:45:13.353Z,10.60
2022-10-17T05:47:41.873Z,10.50
2022-10-17T05:50:11.418Z,10.50
2022-10-17T05:52:58.551Z,10.60
2022-10-17T05:55:26.792Z,10.60
2022-10-17T05:57:55.130Z,10.60
2022-10-17T06:00:30.162Z,10.60
2022-10-17T06:03:00.055Z,10.60
2022-10-17T06:05:28.225Z,10.60
2022-10-17T06:08:01.140Z,10.70
2022-10-17T06:10:32.264Z,10.70
2022-10-17T06:13:01.409Z,10.70
2022-10-17T06:15:31.651Z,10.80
2022-10-17T06:18:04.336Z,10.80
2022-10-17T06:20:32.444Z,10.90
2022-10-17T06:23:00.706Z,10.90
2022-10-17T06:25:46.155Z,11.00
2022-10-17T06:28:14.230Z,11.00
2022-10-17T06:30:43.846Z,11.00
2022-10-17T06:33:12.587Z,11.10
2022-10-17T06:35:40.838Z,11.20
2022-10-17T06:38:09.027Z,11.30
2022-10-17T06:40:38.331Z,11.40
2022-10-17T06:43:06.727Z,11.40
2022-10-17T06:48:35.369Z,11.60
2022-10-17T06:51:13.116Z,11.60
2022-10-17T06:53:49.441Z,11.80
2022-10-17T06:56:37.850Z,11.80
2022-10-17T06:59:10.351Z,11.90
2022-10-17T07:01:44.623Z,12.00
2022-10-17T07:04:15.945Z,12.10
2022-10-17T07:06:45.416Z,12.20
2022-10-17T07:09:24.195Z,12.30
2022-10-17T07:11:52.352Z,12.30
2022-10-17T07:14:20.490Z,12.40
2022-10-17T07:16:50.637Z,12.50
2022-10-17T07:19:25.046Z,12.60
2022-10-17T07:21:53.220Z,12.70
2022-10-17T07:24:21.700Z,12.90
2022-10-17T07:26:55.281Z,13.00
2022-10-17T07:29:23.506Z,13.10
2022-10-17T07:32:25.154Z,13.30
2022-10-17T07:34:53.354Z,13.40
2022-10-17T07:37:21.592Z,13.50
2022-10-17T07:39:56.450Z,13.70
2022-10-17T07:42:25.312Z,13.80
2022-10-17T07:44:54.959Z,13.90
2022-10-17T07:47:25.498Z,14.00
2022-10-17T07:49:54.706Z,14.20
2022-10-17T07:52:22.793Z,14.30
2022-10-17T07:54:50.981Z,14.50
2022-10-17T07:57:19.089Z,14.70
2022-10-17T07:59:47.920Z,14.80
2022-10-17T08:02:23.926Z,15.00
2022-10-17T08:04:53.807Z,15.10
2022-10-17T08:07:26.805Z,15.30
2022-10-17T08:09:57.432Z,15.50
2022-10-17T08:12:25.893Z,15.70
2022-10-17T08:14:53.989Z,15.90
2022-10-17T08:17:22.656Z,16.00
2022-10-17T08:19:50.776Z,16.10
2022-10-17T08:22:20.337Z,16.30
2022-10-17T08:24:48.583Z,16.50
2022-10-17T08:27:21.432Z,16.60
2022-10-17T08:29:52.693Z,16.80
2022-10-17T08:32:22.081Z,16.90
2022-10-17T08:34:50.166Z,17.10
2022-10-17T08:37:19.884Z,17.20
2022-10-17T08:39:47.999Z,17.40
2022-10-17T08:42:43.888Z,17.50
2022-10-17T08:45:25.288Z,17.70
2022-10-17T08:48:00.216Z,17.80
2022-10-17T08:50:37.805Z,18.00
2022-10-17T08:53:16.744Z,18.10
2022-10-17T08:55:49.106Z,18.30
2022-10-17T08:58:23.618Z,18.40
2022-10-17T09:01:12.718Z,18.60
2022-10-17T09:04:04.238Z,18.70
2022-10-17T09:06:38.825Z,18.90
2022-10-17T09:09:26.103Z,19.00
2022-10-17T09:12:13.411Z,19.20
2022-10-17T09:15:17.337Z,19.30
2022-10-17T09:17:56.070Z,19.50
2022-10-17T09:20:29.124Z,19.60
2022-10-17T09:23:01.970Z,19.80
2022-10-17T09:25:44.680Z,20.00
2022-10-17T09:28:19.656Z,20.10
2022-10-17T09:30:53.726Z,20.30
2022-10-17T09:33:35.463Z,20.40
2022-10-17T09:36:21.631Z,20.60
2022-10-17T09:38:54.147Z,20.70
2022-10-17T09:41:45.882Z,20.90
2022-10-17T09:44:22.744Z,21.10
2022-10-17T09:47:18.783Z,21.20
2022-10-17T09:49:49.636Z,21.30
2022-10-17T09:52:28.070Z,21.50
2022-10-17T09:55:02.696Z,21.60
2022-10-17T09:57:55.319Z,21.80
2022-10-17T10:00:27.694Z,21.90
2022-10-17T10:03:14.139Z,22.10
2022-10-17T10:05:43.493Z,22.30
2022-10-17T10:08:18.192Z,22.50
2022-10-17T10:10:46.957Z,22.60
2022-10-17T10:13:21.308Z,22.80
2022-10-17T10:15:51.670Z,23.00
2022-10-17T10:18:32.931Z,23.20
2022-10-17T10:21:09.667Z,23.40
2022-10-17T10:23:40.486Z,23.50
2022-10-17T10:26:25.290Z,23.70
2022-10-17T10:28:59.886Z,23.80
2022-10-17T10:31:36.624Z,23.90
2022-10-17T10:34:19.472Z,24.10
2022-10-17T10:36:56.265Z,24.20
2022-10-17T10:39:42.263Z,24.40
2022-10-17T10:42:25.285Z,24.60
2022-10-17T10:45:00.930Z,24.70
2022-10-17T10:47:32.916Z,24.80
2022-10-17T10:50:26.365Z,25.10
2022-10-17T10:53:11.078Z,25.30
2022-10-17T10:55:48.750Z,25.50
2022-10-17T10:58:33.501Z,25.70
2022-10-17T11:01:13.451Z,25.90
2022-10-17T11:03:55.788Z,26.00
2022-10-17T11:06:29.441Z,26.20
2022-10-17T11:09:14.982Z,26.40
2022-10-17T11:11:49.474Z,26.60
2022-10-17T11:14:24.749Z,26.80
2022-10-17T11:17:06.567Z,26.90
2022-10-17T11:19:43.848Z,27.00
2022-10-17T11:22:17.924Z,27.10
2022-10-17T11:24:57.143Z,27.30
2022-10-17T11:27:26.951Z,27.40
2022-10-17T11:29:55.433Z,27.60
2022-10-17T11:32:35.170Z,27.80
2022-10-17T11:35:14.373Z,28.00
2022-10-17T11:37:51.029Z,28.20
2022-10-17T11:40:30.305Z,28.40
2022-10-17T11:43:04.020Z,28.60
2022-10-17T11:45:42.799Z,28.90
2022-10-17T11:48:22.454Z,29.00
2022-10-17T11:53:58.748Z,29.70
2022-10-17T11:56:41.884Z,29.80
2022-10-17T11:59:47.019Z,29.90
2022-10-17T12:02:28.667Z,30.10
2022-10-17T12:05:06.891Z,30.40
2022-10-17T12:07:46.570Z,30.80
2022-10-17T12:10:30.364Z,31.10
2022-10-17T12:12:58.552Z,31.50
2022-10-17T12:15:32.047Z,31.70
2022-10-17T12:18:02.858Z,32.00
2022-10-17T12:20:37.986Z,32.20
2022-10-17T12:23:24.641Z,32.50
2022-10-17T12:26:01.120Z,32.90
2022-10-17T12:28:34.682Z,33.30
2022-10-17T12:31:09.906Z,33.50
2022-10-17T12:33:50.032Z,33.80
2022-10-17T12:36:42.117Z,34.20
2022-10-17T12:39:51.290Z,34.40
2022-10-17T12:42:49.696Z,34.60
2022-10-17T12:45:51.325Z,34.90
2022-10-17T12:49:01.615Z,35.00
2022-10-17T12:51:35.635Z,35.10
2022-10-17T12:54:13.413Z,35.20
2022-10-17T12:56:45.680Z,35.40
2022-10-17T12:59:18.884Z,35.50
2022-10-17T13:01:51.453Z,35.40
2022-10-17T13:04:21.017Z,35.30
2022-10-17T13:06:54.023Z,35.40
2022-10-17T13:09:30.917Z,35.60
2022-10-17T13:12:02.497Z,35.80
2022-10-17T13:14:33.618Z,36.00
2022-10-17T13:17:05.077Z,36.30
2022-10-17T13:19:42.832Z,36.40
2022-10-17T13:22:18.976Z,36.30
2022-10-17T13:24:50.519Z,36.30
2022-10-17T13:27:28.120Z,36.30
2022-10-17T13:29:58.205Z,36.20
2022-10-17T13:32:39.661Z,36.30
2022-10-17T13:35:11.303Z,35.60
2022-10-17T13:37:42.263Z,34.40
2022-10-17T13:40:49.710Z,33.40
2022-10-17T13:43:17.880Z,32.90
2022-10-17T13:45:52.382Z,32.30
2022-10-17T13:48:24.554Z,31.60
2022-10-17T13:50:59.131Z,31.00
2022-10-17T13:53:34.104Z,30.60
2022-10-17T13:56:26.885Z,30.20
2022-10-17T13:58:58.044Z,29.90
2022-10-17T14:01:29.099Z,29.70
2022-10-17T14:04:09.440Z,29.70
2022-10-17T14:06:47.644Z,29.50
2022-10-17T14:09:24.495Z,29.30
2022-10-17T14:12:04.189Z,29.10
2022-10-17T14:14:51.749Z,29.00
2022-10-17T14:17:27.033Z,28.90
2022-10-17T14:20:34.021Z,28.80
2022-10-17T14:23:04.402Z,28.60
2022-10-17T14:25:40.091Z,28.60
2022-10-17T14:28:18.342Z,28.50
2022-10-17T14:30:56.675Z,28.40
2022-10-17T14:33:30.575Z,28.30
2022-10-17T14:36:01.917Z,28.20
2022-10-17T14:38:31.506Z,28.20
2022-10-17T14:44:00.203Z,28.30
2022-10-17T14:46:29.091Z,28.80
2022-10-17T14:49:09.226Z,29.30
2022-10-17T14:51:50.250Z,29.80
2022-10-17T14:54:29.111Z,30.60
2022-10-17T14:56:57.467Z,31.20
2022-10-17T14:59:53.683Z,31.40
2022-10-17T15:02:15.731Z,31.10
2022-10-17T15:04:43.901Z,30.50
2022-10-17T15:07:16.490Z,29.90
2022-10-17T15:09:45.990Z,29.40
2022-10-17T15:12:17.881Z,29.00
2022-10-17T15:14:48.863Z,28.90
2022-10-17T15:17:21.140Z,29.00
2022-10-17T15:19:50.471Z,29.30
2022-10-17T15:22:19.462Z,29.20
2022-10-17T15:24:48.536Z,28.90
2022-10-17T15:27:18.887Z,28.90
2022-10-17T15:29:48.984Z,29.00
2022-10-17T15:32:17.587Z,28.70
2022-10-17T15:34:46.153Z,28.30
2022-10-17T15:37:22.492Z,27.80
2022-10-17T15:39:54.803Z,27.50
2022-10-17T15:42:27.330Z,27.10
2022-10-17T15:44:57.713Z,26.80
2022-10-17T15:47:30.980Z,26.50
2022-10-17T15:49:59.946Z,26.20
2022-10-17T15:52:29.261Z,25.90
2022-10-17T15:54:59.731Z,25.60
2022-10-17T15:57:35.822Z,25.30
2022-10-17T16:00:16.404Z,25.00
2022-10-17T16:02:45.541Z,24.80
2022-10-17T16:05:17.462Z,24.50
2022-10-17T16:07:46.955Z,24.30
2022-10-17T16:10:16.424Z,24.00
2022-10-17T16:12:44.773Z,23.80
2022-10-17T16:15:19.351Z,23.60
2022-10-17T16:17:47.492Z,23.30
2022-10-17T16:20:16.398Z,23.10
2022-10-17T16:22:46.288Z,22.90
2022-10-17T16:25:20.898Z,22.70
2022-10-17T16:27:51.549Z,22.50
2022-10-17T16:32:56.810Z,22.10
2022-10-17T16:35:28.877Z,21.90
2022-10-17T16:37:58.569Z,21.70
2022-10-17T16:40:26.870Z,21.50
2022-10-17T16:42:54.935Z,21.30
2022-10-17T16:45:24.619Z,21.10
2022-10-17T16:47:53.164Z,20.90
2022-10-17T16:50:21.424Z,20.80
2022-10-17T16:52:49.591Z,20.60
2022-10-17T16:55:19.297Z,20.50
2022-10-17T16:57:48.902Z,20.30
2022-10-17T17:00:18.584Z,20.20
2022-10-17T17:02:50.190Z,20.10
2022-10-17T17:05:18.513Z,19.90
2022-10-17T17:07:48.107Z,19.80
2022-10-17T17:10:16.580Z,19.70
2022-10-17T17:12:44.714Z,19.50
2022-10-17T17:15:12.840Z,19.40
2022-10-17T17:17:56.742Z,19.30
2022-10-17T17:20:26.878Z,19.20
2022-10-17T17:22:55.020Z,19.10
2022-10-17T17:25:23.232Z,19.00
2022-10-17T17:27:51.664Z,18.90
2022-10-17T17:30:19.951Z,18.80
2022-10-17T17:32:48.132Z,18.60
2022-10-17T17:35:16.409Z,18.60
2022-10-17T17:37:45.868Z,18.50
2022-10-17T17:40:14.197Z,18.40
2022-10-17T17:42:42.381Z,18.30
2022-10-17T17:45:11.973Z,18.20
2022-10-17T17:47:40.134Z,18.10
2022-10-17T17:50:09.315Z,18.00
2022-10-17T17:52:37.428Z,18.00
2022-10-17T17:55:08.411Z,17.90
2022-10-17T17:57:36.592Z,17.80
2022-10-17T18:00:05.896Z,17.70
2022-10-17T18:02:36.392Z,17.70
2022-10-17T18:05:06.865Z,17.60
2022-10-17T18:07:38.041Z,17.50
2022-10-17T18:10:09.512Z,17.50
2022-10-17T18:12:37.775Z,17.40
2022-10-17T18:15:07.664Z,17.30
2022-10-17T18:17:35.877Z,17.20
2022-10-17T18:20:04.214Z,17.20
2022-10-17T18:22:32.619Z,17.10
2022-10-17T18:25:01.014Z,17.00
2022-10-17T18:27:30.516Z,17.00
2022-10-17T18:29:58.665Z,16.90
2022-10-17T18:32:27.086Z,16.90
2022-10-17T18:34:55.383Z,16.80
2022-10-17T18:37:23.574Z,16.80
2022-10-17T18:39:54.029Z,16.70
2022-10-17T18:42:22.297Z,16.70
2022-10-17T18:44:51.771Z,16.60
2022-10-17T18:47:19.865Z,16.60
2022-10-17T18:49:48.752Z,16.50
2022-10-17T18:52:17.035Z,16.50
2022-10-17T18:54:45.267Z,16.40
2022-10-17T18:57:13.409Z,16.40
2022-10-17T18:59:41.524Z,16.30
2022-10-17T19:02:13.434Z,16.30
2022-10-17T19:04:41.672Z,16.20
2022-10-17T19:07:10.986Z,16.20
2022-10-17T19:09:39.208Z,16.20
2022-10-17T19:12:07.527Z,16.10
2022-10-17T19:14:38.362Z,16.10
2022-10-17T19:17:06.833Z,16.00
2022-10-17T19:19:37.265Z,16.00
2022-10-17T19:22:05.572Z,15.90
2022-10-17T19:24:33.823Z,15.90
2022-10-17T19:27:02.722Z,15.90
2022-10-17T19:29:33.069Z,15.80
2022-10-17T19:32:02.599Z,15.80
2022-10-17T19:34:30.771Z,15.70
2022-10-17T19:37:00.376Z,15.70
2022-10-17T19:39:28.589Z,15.70
2022-10-17T19:41:56.825Z,15.60
2022-10-17T19:44:25.158Z,15.60
2022-10-17T19:46:53.364Z,15.60
2022-10-17T19:49:21.674Z,15.50
2022-10-17T19:51:49.909Z,15.50
2022-10-17T19:54:20.278Z,15.40
2022-10-17T19:56:49.338Z,15.40
2022-10-17T19:59:18.444Z,15.40
2022-10-17T20:01:47.179Z,15.30
2022-10-17T20:04:15.665Z,15.30
2022-10-17T20:06:43.985Z,15.30
2022-10-17T20:09:16.617Z,15.20
2022-10-17T20:11:47.546Z,15.20
2022-10-17T20:14:15.693Z,15.20
2022-10-17T20:16:44.764Z,15.10
2022-10-17T20:19:14.414Z,15.10
2022-10-17T20:21:44.469Z,15.10
2022-10-17T20:24:15.812Z,15.00
2022-10-17T20:26:44.649Z,15.00
2022-10-17T20:29:17.542Z,15.00
2022-10-17T20:31:47.469Z,15.00
2022-10-17T20:34:18.891Z,14.90
2022-10-17T20:36:48.053Z,14.90
2022-10-17T20:39:19.818Z,14.90
2022-10-17T20:41:48.651Z,14.80
2022-10-17T20:44:18.162Z,14.80
2022-10-17T20:47:00.663Z,14.70
2022-10-17T20:49:30.039Z,14.70
2022-10-17T20:51:58.381Z,14.70
2022-10-17T20:54:28.216Z,14.70
2022-10-17T20:56:58.717Z,14.60
2022-10-17T20:59:31.263Z,14.60
2022-10-17T21:01:59.405Z,14.60
2022-10-17T21:04:45.347Z,14.50
2022-10-17T21:07:15.015Z,14.50
2022-10-17T21:09:43.368Z,14.50
2022-10-17T21:12:13.177Z,14.40
2022-10-17T21:14:47.834Z,14.40
2022-10-17T21:17:16.002Z,14.40
2022-10-17T21:19:44.336Z,14.30
2022-10-17T21:22:12.489Z,14.30
2022-10-17T21:24:40.648Z,14.30
2022-10-17T21:27:16.365Z,14.30
2022-10-17T21:29:44.757Z,14.20
2022-10-17T21:32:25.212Z,14.20
2022-10-17T21:35:02.336Z,14.20
2022-10-17T21:37:30.512Z,14.10
2022-10-17T21:39:58.612Z,14.10
2022-10-17T21:42:26.732Z,14.10
2022-10-17T21:44:54.807Z,14.10
2022-10-17T21:47:27.523Z,14.00
2022-10-17T21:49:56.077Z,14.00
2022-10-17T21:52:24.264Z,14.00
2022-10-17T21:54:52.360Z,14.00
2022-10-17T21:57:20.494Z,13.90
2022-10-17T21:59:48.719Z,13.90
2022-10-17T22:02:17.426Z,13.90
2022-10-17T22:04:47.029Z,13.80
2022-10-17T22:07:15.216Z,13.80
2022-10-17T22:09:43.291Z,13.80
2022-10-17T22:12:11.523Z,13.70
2022-10-17T22:14:39.607Z,13.70
2022-10-17T22:17:07.788Z,13.70
2022-10-17T22:19:35.921Z,13.60
2022-10-17T22:22:05.444Z,13.60
2022-10-17T22:24:34.584Z,13.60
2022-10-17T22:27:02.756Z,13.60
2022-10-17T22:29:30.871Z,13.50
2022-10-17T22:31:58.963Z,13.50
2022-10-17T22:34:27.320Z,13.50
2022-10-17T22:36:55.443Z,13.50
2022-10-17T22:39:24.867Z,13.50
2022-10-17T22:41:53.028Z,13.50
2022-10-17T22:44:21.155Z,13.40
2022-10-17T22:46:49.618Z,13.40
2022-10-17T22:49:17.929Z,13.40
2022-10-17T22:51:46.065Z,13.40
2022-10-17T22:54:14.227Z,13.30
2022-10-17T22:56:43.679Z,13.30
2022-10-17T22:59:11.830Z,13.30
2022-10-17T23:01:40.069Z,13.30
2022-10-17T23:04:08.271Z,13.20
2022-10-17T23:06:36.382Z,13.20
2022-10-17T23:09:04.972Z,13.20
2022-10-17T23:11:33.222Z,13.20
2022-10-17T23:14:02.672Z,13.20
2022-10-17T23:16:30.812Z,13.10
2022-10-17T23:18:58.993Z,13.10
2022-10-17T23:21:27.252Z,13.10
2022-10-17T23:23:55.354Z,13.10
2022-10-17T23:26:23.584Z,13.00
2022-10-17T23:28:55.984Z,13.00
2022-10-17T23:31:25.720Z,13.00
2022-10-17T23:33:54.081Z,13.00
2022-10-17T23:36:23.068Z,13.00
2022-10-17T23:38:53.801Z,12.90
2022-10-17T23:41:24.567Z,12.90
2022-10-17T23:43:52.790Z,12.90
2022-10-17T23:46:20.878Z,12.90
2022-10-17T23:48:50.625Z,12.80
2022-10-17T23:51:18.795Z,12.80
2022-10-17T23:53:46.995Z,12.80
2022-10-17T23:56:15.430Z,12.80
2022-10-17T23:58:43.598Z,12.70
